Time;durP1;ratioP1;P1;durP2;ratioP2;P2;SDS_P1;SDS_P2;PMS_P1;PMS_P2;Temp;Humidity;BMP_temperature;BMP_pressure;BME280_temperature;BME280_humidity;BME280_pressure;Samples;Min_cycle;Max_cycle;Signal;HPM_P1;HPM_P2
2021/01/12 00:02:25;;;;;;;5.60;2.20;;;;;;;3.77;63.03;100212.06;5033618;28;20032;-70
2021/01/12 00:04:51;;;;;;;4.05;2.03;;;;;;;3.90;63.06;100199.72;5025144;28;20060;-70
2021/01/12 00:07:24;;;;;;;5.13;1.85;;;;;;;3.65;63.78;100212.34;5025822;28;20029;-70
2021/01/12 00:09:52;;;;;;;6.53;2.00;;;;;;;3.57;64.07;100199.56;5032068;28;20038;-71
2021/01/12 00:12:19;;;;;;;10.80;2.33;;;;;;;3.70;63.54;100196.72;5025284;28;20208;-71
2021/01/12 00:14:45;;;;;;;11.20;2.40;;;;;;;4.39;61.96;100190.75;5025456;28;20052;-70
2021/01/12 00:17:11;;;;;;;6.57;2.17;;;;;;;3.89;63.07;100182.47;5013356;28;20042;-70
2021/01/12 00:19:37;;;;;;;6.20;1.88;;;;;;;4.47;61.69;100192.31;5022876;28;20487;-71
2021/01/12 00:22:14;;;;;;;6.88;1.98;;;;;;;4.17;62.21;100187.00;5004801;28;20529;-71
2021/01/12 00:24:50;;;;;;;8.90;2.15;;;;;;;4.50;61.11;100184.44;5032166;28;20036;-71
2021/01/12 00:27:17;;;;;;;7.00;2.53;;;;;;;4.15;62.02;100179.28;5039108;28;20041;-71
2021/01/12 00:29:44;;;;;;;4.90;1.88;;;;;;;4.58;61.02;100173.00;5034886;28;20120;-71
2021/01/12 00:32:19;;;;;;;10.75;2.63;;;;;;;4.04;62.74;100178.69;5037032;28;20047;-71
2021/01/12 00:34:45;;;;;;;5.60;2.00;;;;;;;3.77;63.79;100169.84;5036997;28;20053;-72
2021/01/12 00:37:11;;;;;;;6.65;2.83;;;;;;;3.55;64.54;100175.50;5035795;28;20041;-71
2021/01/12 00:39:37;;;;;;;4.97;2.47;;;;;;;4.19;61.50;100177.47;5036527;28;20498;-71
2021/01/12 00:42:03;;;;;;;4.70;2.70;;;;;;;3.78;63.44;100168.94;5029831;28;20037;-71
2021/01/12 00:44:28;;;;;;;3.88;1.75;;;;;;;4.42;61.76;100163.94;5032068;28;20034;-73
2021/01/12 00:46:55;;;;;;;11.82;2.25;;;;;;;4.07;63.08;100167.41;5023371;28;20037;-72
2021/01/12 00:49:22;;;;;;;4.53;1.75;;;;;;;4.75;60.97;100162.22;5023680;28;20133;-71
2021/01/12 00:51:48;;;;;;;6.72;1.90;;;;;;;4.63;61.01;100162.53;5023535;28;20045;-71
2021/01/12 00:54:15;;;;;;;4.38;2.15;;;;;;;4.09;62.58;100152.72;5024685;28;20033;-71
2021/01/12 00:56:41;;;;;;;8.35;2.65;;;;;;;4.09;62.71;100144.97;5024204;28;20405;-71
2021/01/12 00:59:07;;;;;;;4.13;1.90;;;;;;;4.26;62.30;100150.56;5031516;28;20025;-71
2021/01/12 01:01:33;;;;;;;4.65;1.55;;;;;;;3.77;63.56;100133.66;5026775;28;20033;-71
2021/01/12 01:03:59;;;;;;;11.52;2.30;;;;;;;4.30;62.86;100147.03;5010269;28;20026;-71
2021/01/12 01:06:25;;;;;;;4.40;1.73;;;;;;;4.48;61.88;100150.03;5019084;28;20061;-71
2021/01/12 01:08:52;;;;;;;3.30;1.88;;;;;;;3.80;63.70;100146.50;5021946;28;20176;-71
2021/01/12 01:11:17;;;;;;;2.97;1.08;;;;;;;4.30;62.52;100143.59;5024207;28;20033;-71
2021/01/12 01:13:43;;;;;;;5.70;1.73;;;;;;;4.16;63.13;100149.09;5011947;28;20036;-71
2021/01/12 01:16:09;;;;;;;9.32;1.45;;;;;;;4.01;63.13;100138.25;5025301;28;20033;-71
2021/01/12 01:18:34;;;;;;;6.63;1.25;;;;;;;3.91;63.70;100131.59;5022231;28;20076;-71
2021/01/12 01:21:00;;;;;;;6.13;1.80;;;;;;;3.85;64.09;100130.88;5020287;28;20545;-71
2021/01/12 01:23:26;;;;;;;5.43;1.10;;;;;;;3.92;63.21;100130.72;5023087;28;20034;-71
2021/01/12 01:25:52;;;;;;;7.32;1.35;;;;;;;4.49;61.83;100128.41;5022935;28;21678;-71
2021/01/12 01:28:20;;;;;;;4.47;1.35;;;;;;;4.63;61.49;100127.16;5027233;28;20027;-71
2021/01/12 01:30:46;;;;;;;5.35;1.65;;;;;;;4.69;61.18;100128.72;5023716;28;20046;-71
2021/01/12 01:33:12;;;;;;;9.15;1.45;;;;;;;4.28;62.74;100128.09;5022913;28;20303;-71
2021/01/12 01:35:37;;;;;;;5.40;1.17;;;;;;;4.82;60.83;100127.50;5031870;28;20129;-71
2021/01/12 01:38:03;;;;;;;7.18;2.42;;;;;;;4.41;62.39;100123.47;5022680;28;20409;-71
2021/01/12 01:40:30;;;;;;;7.47;1.42;;;;;;;4.38;62.81;100126.94;5027352;28;20072;-71
2021/01/12 01:42:55;;;;;;;7.57;1.00;;;;;;;4.09;63.63;100112.19;5025087;28;20033;-71
2021/01/12 01:45:23;;;;;;;6.25;1.50;;;;;;;4.50;61.66;100115.44;5024764;28;20708;-72
2021/01/12 01:47:50;;;;;;;2.97;1.00;;;;;;;4.15;63.38;100116.38;5018702;28;20036;-72
2021/01/12 01:50:17;;;;;;;3.75;1.48;;;;;;;4.35;62.46;100106.34;5021573;28;20037;-71
2021/01/12 01:52:54;;;;;;;7.00;2.03;;;;;;;4.54;61.66;100111.03;5017804;28;20191;-72
2021/01/12 01:55:20;;;;;;;8.07;1.50;;;;;;;3.70;64.74;100098.50;5037586;28;20286;-71
2021/01/12 01:57:46;;;;;;;4.03;1.10;;;;;;;4.37;62.33;100101.97;5008842;28;20042;-71
2021/01/12 02:00:16;;;;;;;2.67;0.85;;;;;;;4.33;62.77;100094.34;5021921;28;20045;-71
2021/01/12 02:03:04;;;;;;;7.15;1.20;;;;;;;4.50;61.89;100099.91;5033916;28;20037;-71
2021/01/12 02:05:33;;;;;;;3.75;1.38;;;;;;;4.90;60.75;100097.97;5012610;28;20026;-71
2021/01/12 02:08:04;;;;;;;6.05;1.60;;;;;;;4.87;60.70;100090.28;5032908;28;20034;-71
2021/01/12 02:10:37;;;;;;;10.18;1.73;;;;;;;4.50;61.91;100099.91;5030081;28;20063;-71
2021/01/12 02:13:05;;;;;;;5.95;1.55;;;;;;;4.27;62.71;100091.91;5020696;28;20128;-71
2021/01/12 02:15:32;;;;;;;4.10;1.27;;;;;;;4.52;62.29;100092.97;5022092;28;20402;-72
2021/01/12 02:17:58;;;;;;;3.65;1.38;;;;;;;4.24;63.31;100087.66;5028114;28;20050;-71
2021/01/12 02:20:27;;;;;;;7.47;1.40;;;;;;;4.59;61.88;100083.28;5011020;28;20026;-72
2021/01/12 02:23:09;;;;;;;7.53;2.05;;;;;;;4.55;61.79;100066.16;5020882;28;20040;-71
2021/01/12 02:25:37;;;;;;;3.78;1.65;;;;;;;4.37;62.61;100078.69;5020213;28;20036;-71
2021/01/12 02:28:08;;;;;;;11.57;2.55;;;;;;;5.14;60.23;100070.50;5029891;28;20030;-72
2021/01/12 02:30:37;;;;;;;4.40;2.30;;;;;;;5.11;60.32;100070.63;5024047;28;20104;-71
2021/01/12 02:33:04;;;;;;;12.32;1.92;;;;;;;5.05;60.15;100066.44;5017611;28;20144;-71
2021/01/12 02:35:31;;;;;;;7.60;2.35;;;;;;;4.48;62.24;100077.56;5008775;28;20042;-71
2021/01/12 02:37:57;;;;;;;7.43;1.42;;;;;;;4.17;63.03;100071.47;5010746;28;20403;-71
2021/01/12 02:40:24;;;;;;;3.33;1.80;;;;;;;4.70;61.39;100059.66;5025975;28;20044;-72
2021/01/12 02:42:51;;;;;;;8.77;1.65;;;;;;;5.11;60.18;100063.69;5021646;28;20747;-72
2021/01/12 02:45:17;;;;;;;4.85;2.22;;;;;;;5.10;60.16;100064.59;5023288;28;20026;-71
2021/01/12 02:47:43;;;;;;;8.02;2.30;;;;;;;5.16;59.95;100056.59;5019853;28;20025;-70
2021/01/12 02:50:11;;;;;;;3.10;1.20;;;;;;;4.73;61.89;100059.59;5024634;28;20367;-71
2021/01/12 02:52:41;;;;;;;5.55;1.48;;;;;;;5.31;59.72;100072.59;5023144;28;20032;-72
2021/01/12 02:55:09;;;;;;;4.38;1.05;;;;;;;5.57;58.85;100057.06;5024656;28;20431;-70
2021/01/12 02:57:34;;;;;;;3.75;1.05;;;;;;;5.30;59.93;100057.94;5027716;28;20387;-70
2021/01/12 03:00:03;;;;;;;4.35;1.33;;;;;;;5.34;59.88;100056.94;5027257;28;20320;-71
2021/01/12 03:02:28;;;;;;;8.05;1.65;;;;;;;5.51;59.35;100056.44;5023381;28;20043;-72
2021/01/12 03:04:53;;;;;;;3.47;1.33;;;;;;;5.53;59.40;100062.41;5021771;28;20052;-72
2021/01/12 03:07:19;;;;;;;5.63;1.10;;;;;;;5.60;58.96;100054.38;5023978;28;20151;-73
2021/01/12 03:09:44;;;;;;;9.73;1.50;;;;;;;5.53;58.92;100057.22;5022892;28;20518;-72
2021/01/12 03:12:10;;;;;;;7.45;0.85;;;;;;;6.00;57.49;100062.59;5022742;28;20473;-72
2021/01/12 03:14:35;;;;;;;12.00;0.98;;;;;;;5.65;59.09;100062.84;5024472;28;20089;-70
2021/01/12 03:17:01;;;;;;;4.63;0.40;;;;;;;5.45;59.17;100063.47;5017876;28;20056;-71
2021/01/12 03:19:26;;;;;;;3.25;0.30;;;;;;;5.24;59.37;100062.41;5021927;28;20221;-71
2021/01/12 03:21:52;;;;;;;2.60;0.45;;;;;;;5.19;59.57;100066.03;5021853;28;20038;-71
2021/01/12 03:24:17;;;;;;;4.65;0.20;;;;;;;5.25;58.75;100066.69;5022394;28;20034;-70
2021/01/12 03:26:43;;;;;;;2.25;0.10;;;;;;;5.23;58.99;100071.09;5020957;28;20120;-70
2021/01/12 03:29:08;;;;;;;1.35;0.20;;;;;;;5.18;58.53;100066.94;5024446;28;20489;-71
2021/01/12 03:31:35;;;;;;;3.42;0.10;;;;;;;5.19;58.16;100071.19;5024007;28;20033;-71
2021/01/12 03:34:01;;;;;;;5.75;0.20;;;;;;;5.36;57.59;100066.34;5012234;28;20084;-71
2021/01/12 03:36:26;;;;;;;3.65;0.98;;;;;;;4.94;58.19;100068.50;5022530;28;20030;-71
2021/01/12 03:38:52;;;;;;;5.57;0.73;;;;;;;5.16;57.32;100069.56;5031930;28;20396;-70
2021/01/12 03:41:17;;;;;;;3.45;0.20;;;;;;;5.20;57.06;100065.16;5023443;28;20120;-71
2021/01/12 03:43:43;;;;;;;2.03;0.13;;;;;;;4.88;58.24;100073.84;5013350;28;20033;-71
2021/01/12 03:46:08;;;;;;;6.55;0.30;;;;;;;5.25;56.30;100073.63;5021918;28;20068;-71
2021/01/12 03:48:34;;;;;;;2.33;0.25;;;;;;;5.25;56.67;100058.91;5024068;28;20104;-70
2021/01/12 03:50:59;;;;;;;6.40;0.50;;;;;;;5.30;56.17;100065.69;5023166;28;20033;-71
2021/01/12 03:53:25;;;;;;;3.88;0.30;;;;;;;5.07;57.10;100054.31;5031372;28;20026;-71
2021/01/12 03:55:50;;;;;;;3.67;0.60;;;;;;;5.13;56.95;100058.47;5030950;28;20061;-72
2021/01/12 03:58:16;;;;;;;5.43;0.95;;;;;;;5.18;56.77;100051.38;5025526;28;20053;-71
2021/01/12 04:00:41;;;;;;;9.43;0.38;;;;;;;5.33;56.01;100050.06;5022542;28;20041;-71
2021/01/12 04:03:07;;;;;;;3.25;0.40;;;;;;;5.30;56.47;100052.75;5025140;28;20095;-72
2021/01/12 04:05:33;;;;;;;4.53;1.00;;;;;;;5.17;56.60;100060.06;5017092;28;20438;-72
2021/01/12 04:08:00;;;;;;;4.75;0.30;;;;;;;5.05;56.94;100050.91;5014132;28;20036;-72
2021/01/12 04:10:26;;;;;;;6.00;0.68;;;;;;;5.16;56.75;100059.19;5022906;28;20115;-72
2021/01/12 04:12:52;;;;;;;10.27;0.93;;;;;;;5.25;56.66;100058.91;5018999;28;21571;-71
2021/01/12 04:15:17;;;;;;;10.55;0.85;;;;;;;5.11;57.17;100063.69;5019723;28;20040;-71
2021/01/12 04:17:43;;;;;;;5.68;0.75;;;;;;;5.18;56.75;100062.59;5027006;28;20606;-71
2021/01/12 04:20:09;;;;;;;7.22;0.95;;;;;;;5.25;56.75;100063.25;5018503;28;20021;-71
2021/01/12 04:22:36;;;;;;;2.55;0.20;;;;;;;5.16;56.86;100064.38;5021474;28;20057;-72
2021/01/12 04:25:05;;;;;;;13.80;0.45;;;;;;;5.30;56.43;100060.53;5008627;28;20501;-71
2021/01/12 04:27:30;;;;;;;7.78;0.30;;;;;;;4.96;57.52;100072.75;5032556;28;20037;-71
2021/01/12 04:29:56;;;;;;;2.28;0.63;;;;;;;5.09;56.85;100068.06;5021450;28;20018;-71
2021/01/12 04:32:21;;;;;;;6.55;0.43;;;;;;;4.95;57.40;100078.84;5019658;28;20084;-72
2021/01/12 04:34:47;;;;;;;9.00;0.50;;;;;;;4.71;57.50;100079.50;5016157;28;20099;-72
2021/01/12 04:37:12;;;;;;;3.42;0.10;;;;;;;4.80;56.88;100081.81;5017642;28;20041;-71
2021/01/12 04:39:38;;;;;;;5.18;0.22;;;;;;;4.76;56.42;100091.41;5022545;28;20029;-71
2021/01/12 04:42:04;;;;;;;3.33;0.45;;;;;;;4.49;57.00;100097.38;5020605;28;20057;-71
2021/01/12 04:44:29;;;;;;;1.02;0.20;;;;;;;4.59;56.14;100093.66;5023289;28;20033;-71
2021/01/12 04:46:55;;;;;;;5.75;0.80;;;;;;;4.35;56.94;100085.66;5013774;28;20583;-70
2021/01/12 04:49:20;;;;;;;2.70;0.43;;;;;;;4.54;56.43;100090.31;5011031;28;20033;-71
2021/01/12 04:51:46;;;;;;;2.03;0.30;;;;;;;4.50;56.49;100091.28;5017476;28;20116;-71
2021/01/12 04:54:11;;;;;;;3.15;0.20;;;;;;;4.59;55.93;100088.47;5025624;28;20119;-71
2021/01/12 04:56:37;;;;;;;8.20;0.50;;;;;;;4.42;56.63;100094.09;5024092;28;20585;-70
2021/01/12 04:59:02;;;;;;;7.22;0.43;;;;;;;4.57;56.28;100095.44;5026008;28;20040;-70
2021/01/12 05:01:29;;;;;;;6.38;0.10;;;;;;;4.10;56.98;100094.94;5003326;28;20060;-72
2021/01/12 05:03:55;;;;;;;5.95;0.45;;;;;;;4.12;56.89;100093.16;5022206;28;20034;-72
2021/01/12 05:06:28;;;;;;;3.13;0.20;;;;;;;4.30;56.13;100095.28;5018422;28;20029;-71
2021/01/12 05:08:55;;;;;;;4.38;0.10;;;;;;;3.98;56.70;100096.97;5021717;28;20033;-71
2021/01/12 05:11:30;;;;;;;13.38;0.52;;;;;;;4.09;56.17;100094.06;5020379;28;20049;-71
2021/01/12 05:14:00;;;;;;;4.05;1.25;;;;;;;4.27;55.04;100097.91;4997393;28;20030;-72
2021/01/12 05:16:26;;;;;;;9.23;1.88;;;;;;;4.01;55.65;100102.03;5024418;28;20034;-71
2021/01/12 05:18:54;;;;;;;3.75;0.60;;;;;;;3.74;56.12;100094.97;5016376;28;20045;-70
2021/01/12 05:21:23;;;;;;;18.27;1.50;;;;;;;4.03;54.94;100099.44;5023323;28;20394;-71
2021/01/12 05:24:06;;;;;;;2.47;0.40;;;;;;;4.22;54.62;100104.97;5022333;28;20487;-71
2021/01/12 05:26:33;;;;;;;11.73;0.40;;;;;;;4.20;54.33;100106.75;5021509;28;20041;-71
2021/01/12 05:29:00;;;;;;;4.03;0.35;;;;;;;4.15;54.38;100104.28;5033678;28;20109;-71
2021/01/12 05:31:27;;;;;;;7.65;0.93;;;;;;;3.92;55.14;100107.44;5024500;28;20491;-71
2021/01/12 05:33:53;;;;;;;4.20;1.30;;;;;;;4.08;54.70;100112.25;5024509;28;20038;-71
2021/01/12 05:36:20;;;;;;;1.50;0.20;;;;;;;3.95;54.44;100114.28;5009556;28;20032;-71
2021/01/12 05:38:47;;;;;;;5.90;0.45;;;;;;;3.99;54.58;100111.56;5020463;28;20092;-71
2021/01/12 05:41:14;;;;;;;6.70;0.40;;;;;;;4.17;54.20;100114.59;5020977;28;20517;-72
2021/01/12 05:43:44;;;;;;;11.18;0.30;;;;;;;4.13;53.94;100113.81;5004601;28;20479;-71
2021/01/12 05:46:12;;;;;;;9.02;1.20;;;;;;;4.16;53.75;100118.03;5022700;28;20080;-71
2021/01/12 05:48:40;;;;;;;5.10;2.40;;;;;;;4.06;54.18;100122.59;5034129;28;20083;-71
2021/01/12 05:51:08;;;;;;;1.98;0.43;;;;;;;4.09;54.08;100119.09;5023448;28;20033;-71
2021/01/12 05:53:50;;;;;;;13.15;1.30;;;;;;;4.15;53.95;100118.94;5032626;28;20118;-71
2021/01/12 05:56:24;;;;;;;6.55;1.02;;;;;;;4.16;53.85;100123.22;5025758;28;20040;-71
2021/01/12 05:58:51;;;;;;;2.72;0.77;;;;;;;4.16;53.67;100130.97;5027551;28;20399;-73
2021/01/12 06:01:48;;;;;;;4.03;0.63;;;;;;;4.18;53.83;100124.88;5033295;28;20082;-71
2021/01/12 06:04:14;;;;;;;7.30;0.30;;;;;;;4.16;53.67;100128.38;5024600;28;20033;-71
2021/01/12 06:06:43;;;;;;;6.65;0.65;;;;;;;4.09;53.87;100138.03;5028165;28;20083;-71
2021/01/12 06:09:11;;;;;;;7.88;0.93;;;;;;;4.12;53.87;100131.94;5030009;28;20915;-71
2021/01/12 06:11:38;;;;;;;11.65;0.82;;;;;;;4.13;53.68;100125.91;5026173;28;20437;-72
2021/01/12 06:14:11;;;;;;;6.05;0.60;;;;;;;3.97;54.15;100131.44;5026956;28;20380;-71
2021/01/12 06:16:38;;;;;;;6.63;0.45;;;;;;;4.12;53.79;100139.69;5020069;28;20454;-72
2021/01/12 06:19:17;;;;;;;3.70;0.30;;;;;;;3.87;53.80;100132.53;5029284;28;20042;-71
2021/01/12 06:21:55;;;;;;;12.30;0.95;;;;;;;4.08;53.05;100136.34;5029809;28;20042;-70
2021/01/12 06:24:36;;;;;;;4.00;0.20;;;;;;;4.11;53.33;100138.84;5046034;28;20025;-71
2021/01/12 06:27:07;;;;;;;6.70;0.50;;;;;;;4.15;53.08;100137.06;5047980;28;20033;-70
2021/01/12 06:29:34;;;;;;;7.05;0.68;;;;;;;4.13;53.16;100142.25;5030773;28;20037;-71
2021/01/12 06:32:00;;;;;;;6.35;0.60;;;;;;;4.08;52.75;100151.88;5030405;28;20352;-71
2021/01/12 06:34:25;;;;;;;4.75;0.45;;;;;;;4.11;53.15;100153.53;5024120;28;20574;-71
2021/01/12 06:36:56;;;;;;;4.65;0.35;;;;;;;4.10;52.94;100149.25;5036949;28;20045;-71
2021/01/12 06:39:40;;;;;;;7.28;0.30;;;;;;;4.15;52.87;100156.00;5029727;28;20404;-71
2021/01/12 06:42:07;;;;;;;4.30;0.30;;;;;;;4.07;52.53;100157.91;5019363;28;20030;-71
2021/01/12 06:44:37;;;;;;;7.75;0.50;;;;;;;4.03;52.87;100161.50;5030266;28;20116;-72
2021/01/12 06:47:08;;;;;;;8.05;0.70;;;;;;;3.93;52.89;100160.00;5029101;28;20030;-72
2021/01/12 06:49:34;;;;;;;4.07;0.10;;;;;;;3.94;52.89;100159.09;5026742;28;20025;-71
2021/01/12 06:52:08;;;;;;;4.13;0.95;;;;;;;3.98;52.93;100153.84;5026316;28;20505;-71
2021/01/12 06:54:45;;;;;;;6.10;0.20;;;;;;;3.97;52.92;100164.22;5025813;28;20042;-71
2021/01/12 06:57:12;;;;;;;8.85;0.17;;;;;;;3.93;53.05;100165.16;5038690;28;20042;-71
2021/01/12 06:59:45;;;;;;;1.55;0.10;;;;;;;3.91;53.23;100169.53;5029330;28;20033;-70
2021/01/12 07:02:18;;;;;;;1.23;0.40;;;;;;;3.94;52.90;100172.91;5032810;28;20495;-71
2021/01/12 07:05:04;;;;;;;11.63;0.30;;;;;;;3.98;53.08;100181.41;5024486;28;20047;-71
2021/01/12 07:07:32;;;;;;;2.78;0.40;;;;;;;3.93;53.40;100171.19;5025104;28;20543;-71
2021/01/12 07:09:59;;;;;;;6.00;0.40;;;;;;;3.95;53.46;100172.00;5017270;28;20181;-70
2021/01/12 07:12:27;;;;;;;15.88;0.32;;;;;;;3.92;53.26;100174.66;5031518;28;20033;-72
2021/01/12 07:14:55;;;;;;;11.13;0.68;;;;;;;3.89;53.28;100182.47;5028837;28;20041;-71
2021/01/12 07:17:45;;;;;;;7.38;0.65;;;;;;;3.83;53.30;100182.63;5026010;28;20044;-71
2021/01/12 07:20:25;;;;;;;8.20;0.93;;;;;;;3.82;53.21;100193.84;5024852;28;20053;-71
2021/01/12 07:23:00;;;;;;;6.57;0.57;;;;;;;3.84;52.98;100188.66;5024219;28;20040;-71
2021/01/12 07:25:31;;;;;;;7.57;0.85;;;;;;;3.79;53.00;100196.50;5024236;28;20056;-71
2021/01/12 07:28:15;;;;;;;1.83;0.53;;;;;;;3.72;53.20;100197.53;5010592;28;20026;-71
2021/01/12 07:30:47;;;;;;;6.45;0.40;;;;;;;3.69;53.17;100202.75;5030015;28;20037;-72
2021/01/12 07:33:15;;;;;;;8.13;0.53;;;;;;;3.65;53.23;100198.53;5027299;28;20098;-71
2021/01/12 07:35:48;;;;;;;8.15;0.60;;;;;;;3.62;52.98;100193.44;5030130;28;20029;-71
2021/01/12 07:38:15;;;;;;;4.78;0.45;;;;;;;3.66;53.21;100197.69;5028449;28;20052;-70
2021/01/12 07:40:41;;;;;;;10.38;0.60;;;;;;;3.65;53.11;100207.16;5025530;28;20033;-71
2021/01/12 07:43:12;;;;;;;14.35;0.75;;;;;;;3.52;53.40;100211.75;5024359;28;20463;-71
2021/01/12 07:45:38;;;;;;;8.18;0.65;;;;;;;3.61;53.09;100215.03;5029281;28;20100;-71
2021/01/12 07:48:08;;;;;;;5.10;0.50;;;;;;;3.64;52.96;100227.88;5027002;28;20021;-71
2021/01/12 07:50:34;;;;;;;6.15;0.88;;;;;;;3.50;53.02;100220.41;5022711;28;20060;-71
2021/01/12 07:52:59;;;;;;;4.70;0.80;;;;;;;3.53;52.84;100235.84;5026094;28;20036;-71
2021/01/12 07:55:26;;;;;;;6.55;0.60;;;;;;;3.42;52.93;100240.38;5028355;28;20029;-71
2021/01/12 07:57:53;;;;;;;8.38;0.82;;;;;;;3.43;52.75;100248.09;5027017;28;20124;-71
2021/01/12 08:00:19;;;;;;;7.63;0.60;;;;;;;3.42;52.62;100248.97;5027310;28;20048;-71
2021/01/12 08:02:48;;;;;;;6.55;0.63;;;;;;;3.22;52.85;100249.34;5027154;28;20033;-71
2021/01/12 08:05:17;;;;;;;6.57;0.38;;;;;;;3.25;52.16;100248.41;5023085;28;20040;-71
2021/01/12 08:07:42;;;;;;;12.40;0.75;;;;;;;3.15;52.07;100253.75;5027176;28;20483;-71
2021/01/12 08:10:09;;;;;;;20.13;0.95;;;;;;;3.10;51.99;100257.34;5014924;28;20091;-71
2021/01/12 08:12:35;;;;;;;2.58;0.20;;;;;;;3.10;51.16;100258.19;5021023;28;20064;-71
2021/01/12 08:15:15;;;;;;;1.90;0.40;;;;;;;2.98;51.61;100263.59;5010524;28;20503;-71
2021/01/12 08:17:48;;;;;;;7.97;0.35;;;;;;;3.07;51.09;100271.16;5032232;28;20177;-70
2021/01/12 08:20:18;;;;;;;6.22;0.40;;;;;;;3.14;50.65;100272.75;5030995;28;20043;-71
2021/01/12 08:23:02;;;;;;;12.93;1.50;;;;;;;3.13;50.98;100277.91;5026000;28;20045;-70
2021/01/12 08:25:28;;;;;;;6.78;0.65;;;;;;;3.21;50.85;100270.03;5028353;28;20720;-70
2021/01/12 08:27:56;;;;;;;4.28;0.35;;;;;;;3.24;50.23;100272.56;5021868;28;20033;-70
2021/01/12 08:30:27;;;;;;;2.97;0.50;;;;;;;3.26;50.13;100279.41;5027974;28;20179;-70
2021/01/12 08:32:56;;;;;;;8.07;0.70;;;;;;;3.16;50.12;100277.88;5027623;28;20060;-70
2021/01/12 08:35:25;;;;;;;4.47;0.65;;;;;;;3.41;49.43;100286.03;5005012;28;20291;-70
2021/01/12 08:37:52;;;;;;;11.73;0.60;;;;;;;3.43;48.98;100284.28;5043269;28;20038;-70
2021/01/12 08:40:17;;;;;;;3.55;0.35;;;;;;;3.54;48.82;100292.66;5027115;28;20033;-70
2021/01/12 08:42:44;;;;;;;8.88;0.40;;;;;;;3.66;48.97;100298.47;5014022;28;20482;-71
2021/01/12 08:45:15;;;;;;;6.68;0.60;;;;;;;3.59;49.06;100295.16;5024005;28;20433;-70
2021/01/12 08:47:41;;;;;;;7.50;1.17;;;;;;;3.59;48.82;100306.34;5025623;28;20029;-70
2021/01/12 08:50:08;;;;;;;2.53;0.15;;;;;;;3.59;49.39;100302.91;5026782;28;20056;-71
2021/01/12 08:52:36;;;;;;;7.53;0.28;;;;;;;3.71;49.28;100310.41;5009448;28;20068;-70
2021/01/12 08:55:02;;;;;;;3.75;0.10;;;;;;;4.07;48.90;100310.50;5023924;28;20121;-71
2021/01/12 08:57:28;;;;;;;5.97;0.40;;;;;;;4.31;47.62;100310.84;5027879;28;20029;-70
2021/01/12 08:59:53;;;;;;;7.00;0.75;;;;;;;5.04;46.90;100305.66;5023580;28;20033;-70
2021/01/12 09:02:20;;;;;;;4.40;0.30;;;;;;;5.74;44.32;100315.81;5006334;28;20044;-71
2021/01/12 09:05:02;;;;;;;5.38;0.20;;;;;;;5.41;44.28;100312.41;5026436;28;20466;-71
2021/01/12 09:07:28;;;;;;;5.63;0.52;;;;;;;4.88;45.48;100317.25;5027339;28;20055;-71
2021/01/12 09:09:54;;;;;;;12.95;0.55;;;;;;;5.49;44.85;100312.22;5022176;28;20053;-70
2021/01/12 09:12:20;;;;;;;2.08;0.22;;;;;;;6.02;44.09;100320.22;5025910;28;20059;-70
2021/01/12 09:14:47;;;;;;;5.40;0.38;;;;;;;6.26;44.13;100305.63;5026678;28;20033;-70
2021/01/12 09:17:20;;;;;;;5.60;0.50;;;;;;;6.70;43.56;100306.81;5028631;28;20708;-71
2021/01/12 09:19:52;;;;;;;4.22;0.77;;;;;;;6.92;41.13;100306.13;5037416;28;20076;-70
2021/01/12 09:22:19;;;;;;;4.78;0.88;;;;;;;7.22;41.20;100308.56;5021945;28;20479;-71
2021/01/12 09:24:49;;;;;;;4.07;0.52;;;;;;;7.37;41.31;100314.97;5026028;28;20479;-71
2021/01/12 09:27:23;;;;;;;10.45;0.38;;;;;;;7.53;40.56;100316.13;5027498;28;20041;-71
2021/01/12 09:29:50;;;;;;;5.35;1.42;;;;;;;7.49;41.16;100319.75;5026672;28;20029;-71
2021/01/12 09:32:34;;;;;;;7.45;0.63;;;;;;;7.70;41.09;100324.19;5029671;28;20040;-71
2021/01/12 09:35:05;;;;;;;5.93;0.32;;;;;;;7.59;40.31;100325.50;5024611;28;20034;-71
2021/01/12 09:37:31;;;;;;;9.63;0.73;;;;;;;7.64;39.93;100332.22;5028393;28;20041;-71
2021/01/12 09:40:00;;;;;;;4.20;0.20;;;;;;;7.36;39.87;100339.28;5020080;28;20037;-71
2021/01/12 09:42:28;;;;;;;6.63;0.77;;;;;;;7.76;39.01;100333.53;5024373;28;20112;-71
2021/01/12 09:44:55;;;;;;;5.15;0.35;;;;;;;8.12;39.93;100346.91;5019222;28;20087;-72
2021/01/12 09:47:22;;;;;;;1.38;0.50;;;;;;;8.19;38.94;100337.13;5028498;28;20025;-71
2021/01/12 09:49:48;;;;;;;6.55;0.57;;;;;;;8.12;39.21;100341.72;5002733;28;20072;-71
2021/01/12 09:52:15;;;;;;;7.80;0.20;;;;;;;8.38;38.08;100342.44;5026588;28;20065;-71
2021/01/12 09:54:45;;;;;;;7.32;0.60;;;;;;;8.54;38.82;100350.53;5022187;28;20056;-73
2021/01/12 09:57:12;;;;;;;8.85;0.30;;;;;;;8.60;38.32;100347.66;5029197;28;20104;-71
2021/01/12 09:59:38;;;;;;;10.48;0.40;;;;;;;8.65;38.27;100348.34;5024589;28;20426;-71
2021/01/12 10:02:03;;;;;;;3.60;0.13;;;;;;;7.40;38.50;100349.53;5029280;28;20049;-72
2021/01/12 10:04:29;;;;;;;4.72;0.25;;;;;;;6.99;39.55;100367.38;5008594;28;20196;-71
2021/01/12 10:06:58;;;;;;;6.93;0.20;;;;;;;6.84;40.24;100366.13;5026673;28;20038;-71
2021/01/12 10:09:25;;;;;;;16.67;1.77;;;;;;;7.49;40.25;100354.41;5025309;28;20076;-70
2021/01/12 10:11:51;;;;;;;4.85;0.28;;;;;;;7.35;38.97;100359.22;5021562;28;20530;-71
2021/01/12 10:14:18;;;;;;;4.15;0.30;;;;;;;7.59;40.46;100367.09;5019630;28;20026;-71
2021/01/12 10:16:44;;;;;;;2.83;0.32;;;;;;;7.79;39.49;100358.59;5022490;28;20048;-71
2021/01/12 10:19:10;;;;;;;2.60;0.85;;;;;;;7.74;39.60;100359.59;5021870;28;20034;-71
2021/01/12 10:21:35;;;;;;;5.32;0.30;;;;;;;7.69;39.17;100363.25;5025743;28;20045;-71
2021/01/12 10:24:01;;;;;;;5.57;0.10;;;;;;;7.81;39.40;100362.81;5026870;28;20033;-71
2021/01/12 10:26:27;;;;;;;3.72;0.32;;;;;;;7.95;39.39;100363.16;5026641;28;20084;-71
2021/01/12 10:28:52;;;;;;;4.90;0.15;;;;;;;7.92;37.99;100359.84;5000181;28;20504;-71
2021/01/12 10:31:20;;;;;;;5.95;0.30;;;;;;;7.28;39.29;100366.38;5024830;28;20037;-71
2021/01/12 10:33:45;;;;;;;1.10;0.10;;;;;;;7.01;39.96;100369.94;5008517;28;20050;-71
2021/01/12 10:36:15;;;;;;;1.35;0.20;;;;;;;7.42;39.91;100360.72;5025629;28;20041;-71
2021/01/12 10:38:41;;;;;;;5.40;0.22;;;;;;;7.57;39.48;100364.56;5024361;28;20126;-71
2021/01/12 10:41:07;;;;;;;6.13;0.55;;;;;;;7.85;38.82;100359.22;5036745;28;20041;-72
2021/01/12 10:43:33;;;;;;;1.50;0.30;;;;;;;8.10;39.52;100363.50;5017925;28;20120;-71
2021/01/12 10:46:00;;;;;;;2.85;0.60;;;;;;;8.00;38.38;100355.16;5029303;28;20043;-71
2021/01/12 10:48:25;;;;;;;8.60;0.30;;;;;;;7.65;39.21;100359.09;5030904;28;20013;-71
2021/01/12 10:50:51;;;;;;;0.73;0.13;;;;;;;7.60;39.18;100359.25;5021522;28;20036;-72
2021/01/12 10:53:16;;;;;;;1.83;0.20;;;;;;;7.26;39.21;100352.59;5033948;28;20032;-71
2021/01/12 10:55:42;;;;;;;4.95;0.20;;;;;;;7.72;39.47;100355.38;5007305;28;20036;-71
2021/01/12 10:58:07;;;;;;;0.93;0.13;;;;;;;7.30;40.18;100358.53;5033402;28;20030;-71
2021/01/12 11:00:33;;;;;;;2.08;0.77;;;;;;;7.24;39.64;100359.59;5024728;28;20033;-71
2021/01/12 11:02:59;;;;;;;3.47;0.10;;;;;;;6.70;40.86;100370.91;5028544;28;20034;-72
2021/01/12 11:05:24;;;;;;;4.65;0.43;;;;;;;6.54;40.81;100362.75;5029833;28;20136;-71
2021/01/12 11:07:50;;;;;;;1.95;0.10;;;;;;;6.91;40.73;100359.00;5028400;28;20033;-72
2021/01/12 11:10:15;;;;;;;1.40;0.30;;;;;;;6.20;40.18;100365.50;5033555;28;20079;-71
2021/01/12 11:12:41;;;;;;;1.08;0.20;;;;;;;6.81;40.04;100361.03;5026062;28;20045;-71
2021/01/12 11:15:08;;;;;;;4.05;0.17;;;;;;;7.13;39.89;100364.31;5028077;28;20034;-71
2021/01/12 11:17:34;;;;;;;2.80;0.20;;;;;;;6.16;41.09;100363.91;5025624;28;20505;-71
2021/01/12 11:20:02;;;;;;;4.85;0.20;;;;;;;6.37;40.93;100363.25;5028672;28;20565;-71
2021/01/12 11:22:28;;;;;;;1.48;0.10;;;;;;;6.70;40.86;100360.53;5023383;28;20123;-71
2021/01/12 11:24:55;;;;;;;1.90;0.40;;;;;;;7.06;40.40;100358.47;5024754;28;20117;-71
2021/01/12 11:27:21;;;;;;;1.67;0.10;;;;;;;7.08;40.05;100354.06;5029515;28;20031;-71
2021/01/12 11:29:47;;;;;;;7.55;0.28;;;;;;;7.15;39.69;100354.69;5033240;28;20034;-72
2021/01/12 11:32:13;;;;;;;2.05;0.22;;;;;;;7.60;38.71;100354.06;5032972;28;20090;-71
2021/01/12 11:34:39;;;;;;;0.25;0.03;;;;;;;6.68;40.14;100347.56;5041330;28;20104;-71
2021/01/12 11:37:04;;;;;;;5.45;0.45;;;;;;;7.52;38.94;100350.84;5022878;28;20080;-71